createdAt,value
2017-12-14T00:01:19.888Z,4.40
2017-12-14T00:03:48.291Z,4.30
2017-12-14T00:06:16.675Z,4.30
2017-12-14T00:08:45.051Z,4.30
2017-12-14T00:11:13.452Z,4.30
2017-12-14T00:13:41.812Z,4.20
2017-12-14T00:16:10.207Z,4.30
2017-12-14T00:18:39.412Z,4.40
2017-12-14T00:21:08.562Z,4.30
2017-12-14T00:23:36.924Z,4.30
2017-12-14T00:26:05.328Z,4.30
2017-12-14T00:28:33.694Z,4.30
2017-12-14T00:31:02.058Z,4.20
2017-12-14T00:33:30.441Z,4.20
2017-12-14T00:35:58.816Z,4.30
2017-12-14T00:38:27.188Z,4.30
2017-12-14T00:40:55.839Z,4.20
2017-12-14T00:43:25.028Z,4.30
2017-12-14T00:45:53.550Z,4.30
2017-12-14T00:48:21.939Z,4.30
2017-12-14T00:50:51.916Z,4.30
2017-12-14T00:53:21.068Z,4.30
2017-12-14T00:55:49.444Z,4.30
2017-12-14T00:58:17.808Z,4.30
2017-12-14T01:00:46.186Z,4.30
2017-12-14T01:03:14.560Z,4.30
2017-12-14T01:05:44.062Z,4.20
2017-12-14T01:08:12.469Z,4.30
2017-12-14T01:10:40.840Z,4.30
2017-12-14T01:13:09.199Z,4.30
2017-12-14T01:15:39.520Z,4.30
2017-12-14T01:18:07.949Z,4.30
2017-12-14T01:20:36.309Z,4.20
2017-12-14T01:23:04.684Z,4.30
2017-12-14T01:25:33.175Z,4.30
2017-12-14T01:28:01.540Z,4.30
2017-12-14T01:30:31.590Z,4.30
2017-12-14T01:33:04.262Z,4.30
2017-12-14T01:35:33.437Z,4.40
2017-12-14T01:38:02.765Z,4.40
2017-12-14T01:40:31.900Z,4.40
2017-12-14T01:43:00.318Z,4.40
2017-12-14T01:45:28.693Z,4.30
2017-12-14T01:47:57.072Z,4.10
2017-12-14T01:50:25.461Z,4.10
2017-12-14T01:52:53.824Z,3.90
2017-12-14T01:55:22.196Z,3.70
2017-12-14T01:57:50.593Z,3.50
2017-12-14T02:00:18.320Z,3.10
2017-12-14T02:02:46.695Z,3.00
2017-12-14T02:05:15.078Z,3.00
2017-12-14T02:07:43.481Z,2.90
2017-12-14T02:10:11.857Z,2.80
2017-12-14T02:12:40.244Z,2.70
2017-12-14T02:15:08.608Z,2.60
2017-12-14T02:17:36.963Z,2.60
2017-12-14T02:20:05.360Z,2.60
2017-12-14T02:22:33.741Z,2.60
2017-12-14T02:25:02.107Z,2.40
2017-12-14T02:27:30.488Z,2.30
2017-12-14T02:29:58.861Z,2.30
2017-12-14T02:32:27.212Z,2.40
2017-12-14T02:34:55.597Z,2.50
2017-12-14T02:37:23.979Z,2.50
2017-12-14T02:39:52.342Z,2.50
2017-12-14T02:42:20.730Z,2.60
2017-12-14T02:44:49.081Z,2.60
2017-12-14T02:47:18.209Z,2.70
2017-12-14T02:49:46.595Z,2.70
2017-12-14T02:52:14.955Z,2.90
2017-12-14T02:54:43.348Z,2.90
2017-12-14T02:57:11.749Z,2.90
2017-12-14T02:59:40.121Z,2.90
2017-12-14T03:02:08.478Z,2.80
2017-12-14T03:04:36.512Z,2.90
2017-12-14T03:07:05.335Z,2.80
2017-12-14T03:09:33.695Z,2.80
2017-12-14T03:12:02.840Z,2.60
2017-12-14T03:14:31.226Z,2.60
2017-12-14T03:16:59.588Z,2.60
2017-12-14T03:19:27.972Z,2.60
2017-12-14T03:21:56.352Z,2.60
2017-12-14T03:24:24.717Z,2.50
2017-12-14T03:26:53.108Z,2.50
2017-12-14T03:29:21.488Z,2.60
2017-12-14T03:31:49.523Z,2.60
2017-12-14T03:34:17.913Z,2.60
2017-12-14T03:36:45.939Z,2.60
2017-12-14T03:39:15.090Z,2.60
2017-12-14T03:41:43.490Z,2.60
2017-12-14T03:44:11.856Z,2.50
2017-12-14T03:46:40.256Z,2.40
2017-12-14T03:49:07.985Z,2.20
2017-12-14T03:51:35.684Z,2.00
2017-12-14T03:54:03.376Z,1.90
2017-12-14T03:56:31.759Z,1.90
2017-12-14T03:59:00.120Z,1.80
2017-12-14T04:01:29.248Z,1.80
2017-12-14T04:03:57.661Z,1.80
2017-12-14T04:06:26.031Z,1.80
2017-12-14T04:08:53.728Z,1.80
2017-12-14T04:11:22.213Z,1.70
2017-12-14T04:13:50.683Z,1.60
2017-12-14T04:16:18.732Z,1.60
2017-12-14T04:18:46.431Z,1.50
2017-12-14T04:21:15.554Z,1.40
2017-12-14T04:23:43.345Z,1.40
2017-12-14T04:26:11.713Z,1.40
2017-12-14T04:28:39.444Z,1.50
2017-12-14T04:31:07.500Z,1.40
2017-12-14T04:33:35.536Z,1.50
2017-12-14T04:36:03.258Z,1.60
2017-12-14T04:38:30.958Z,1.70
2017-12-14T04:40:58.683Z,1.80
2017-12-14T04:45:55.760Z,1.90
2017-12-14T04:50:53.948Z,2.30
2017-12-14T04:53:22.008Z,2.30
2017-12-14T04:55:49.712Z,2.40
2017-12-14T04:58:17.414Z,2.40
2017-12-14T05:00:45.131Z,2.50
2017-12-14T05:03:13.925Z,2.60
2017-12-14T05:05:42.316Z,2.50
2017-12-14T05:08:10.013Z,2.60
2017-12-14T05:10:37.717Z,2.50
2017-12-14T05:13:05.430Z,2.50
2017-12-14T05:15:33.893Z,2.50
2017-12-14T05:18:02.392Z,2.70
2017-12-14T05:20:30.436Z,2.60
2017-12-14T05:22:58.142Z,2.70
2017-12-14T05:25:25.848Z,2.70
2017-12-14T05:27:53.588Z,2.70
2017-12-14T05:30:21.344Z,2.70
2017-12-14T05:32:49.072Z,2.70
2017-12-14T05:35:17.540Z,2.60
2017-12-14T05:37:46.016Z,2.60
2017-12-14T05:40:13.730Z,2.60
2017-12-14T05:42:41.552Z,2.60
2017-12-14T05:45:10.350Z,2.70
2017-12-14T05:47:38.817Z,2.70
2017-12-14T05:50:07.628Z,2.70
2017-12-14T05:52:35.331Z,2.70
2017-12-14T05:55:03.071Z,2.70
2017-12-14T05:57:30.774Z,2.80
2017-12-14T05:59:58.472Z,2.80
2017-12-14T06:02:26.581Z,2.80
2017-12-14T06:04:54.628Z,2.90
2017-12-14T06:07:22.346Z,2.80
2017-12-14T06:09:50.373Z,2.80
2017-12-14T06:12:18.408Z,2.80
2017-12-14T06:14:46.142Z,2.80
2017-12-14T06:17:14.270Z,2.80
2017-12-14T06:19:42.319Z,2.70
2017-12-14T06:22:10.017Z,2.70
2017-12-14T06:24:37.712Z,2.70
2017-12-14T06:27:05.428Z,2.70
2017-12-14T06:29:33.480Z,2.70
2017-12-14T06:32:01.552Z,2.80
2017-12-14T06:34:30.200Z,2.80
2017-12-14T06:36:57.899Z,2.70
2017-12-14T06:39:25.611Z,2.70
2017-12-14T06:41:53.307Z,2.80
2017-12-14T06:44:21.913Z,2.90
2017-12-14T06:46:49.623Z,2.90
2017-12-14T06:49:17.384Z,2.90
2017-12-14T06:51:46.108Z,3.00
2017-12-14T06:54:14.618Z,3.00
2017-12-14T06:56:42.669Z,3.00
2017-12-14T06:59:10.467Z,3.00
2017-12-14T07:01:38.168Z,3.00
2017-12-14T07:04:06.676Z,3.10
2017-12-14T07:06:34.372Z,3.10
2017-12-14T07:09:02.519Z,3.10
2017-12-14T07:11:30.875Z,3.10
2017-12-14T07:13:59.337Z,3.20
2017-12-14T07:16:27.393Z,3.10
2017-12-14T07:18:55.436Z,3.20
2017-12-14T07:21:23.173Z,3.20
2017-12-14T07:23:50.865Z,2.80
2017-12-14T07:26:18.588Z,2.70
2017-12-14T07:28:47.064Z,2.80
2017-12-14T07:31:15.532Z,2.80
2017-12-14T07:33:43.250Z,2.80
2017-12-14T07:36:10.939Z,2.90
2017-12-14T07:38:38.640Z,2.80
2017-12-14T07:41:07.112Z,2.90
2017-12-14T07:43:35.572Z,3.00
2017-12-14T07:46:15.278Z,2.90
2017-12-14T07:48:54.884Z,3.00
2017-12-14T07:51:22.937Z,3.00
2017-12-14T07:53:52.082Z,2.90
2017-12-14T07:56:19.781Z,2.90
2017-12-14T07:58:48.153Z,2.90
2017-12-14T08:01:16.186Z,3.00
2017-12-14T08:03:44.249Z,2.90
2017-12-14T08:06:12.281Z,2.90
2017-12-14T08:08:39.973Z,3.00
2017-12-14T08:11:08.023Z,3.00
2017-12-14T08:13:36.483Z,3.10
2017-12-14T08:16:04.189Z,3.00
2017-12-14T08:18:31.893Z,3.10
2017-12-14T08:20:59.594Z,3.10
2017-12-14T08:23:28.391Z,3.10
2017-12-14T08:25:56.748Z,3.00
2017-12-14T08:28:24.461Z,3.10
2017-12-14T08:30:52.156Z,3.10
2017-12-14T08:33:20.194Z,3.20
2017-12-14T08:35:48.598Z,3.20
2017-12-14T08:38:16.652Z,3.20
2017-12-14T08:40:44.693Z,3.30
2017-12-14T08:43:12.727Z,3.30
2017-12-14T08:45:40.428Z,3.40
2017-12-14T08:48:08.800Z,3.40
2017-12-14T08:50:36.497Z,3.40
2017-12-14T08:53:04.237Z,3.30
2017-12-14T08:55:31.933Z,3.30
2017-12-14T08:57:59.632Z,3.30
2017-12-14T09:00:27.352Z,3.10
2017-12-14T09:02:55.380Z,3.00
2017-12-14T09:05:23.116Z,2.90
2017-12-14T09:07:51.576Z,2.70
2017-12-14T09:10:19.284Z,2.70
2017-12-14T09:12:47.344Z,2.60
2017-12-14T09:15:15.388Z,2.40
2017-12-14T09:17:44.575Z,2.30
2017-12-14T09:20:12.277Z,2.30
2017-12-14T09:22:40.653Z,2.30
2017-12-14T09:25:08.703Z,2.40
2017-12-14T09:27:38.293Z,2.40
2017-12-14T09:30:06.041Z,2.40
2017-12-14T09:32:33.760Z,2.50
2017-12-14T09:35:02.562Z,2.60
2017-12-14T09:37:30.637Z,2.60
2017-12-14T09:39:58.660Z,2.60
2017-12-14T09:42:26.418Z,2.60
2017-12-14T09:44:54.445Z,2.50
2017-12-14T09:47:22.170Z,2.50
2017-12-14T09:49:51.014Z,2.40
2017-12-14T09:52:19.051Z,2.40
2017-12-14T09:54:47.124Z,2.30
2017-12-14T09:57:15.163Z,2.10
2017-12-14T09:59:42.870Z,2.10
2017-12-14T10:02:10.597Z,2.00
2017-12-14T10:04:39.059Z,1.70
2017-12-14T10:07:07.129Z,1.60
2017-12-14T10:09:35.204Z,1.60
2017-12-14T10:12:02.956Z,1.50
2017-12-14T10:14:30.670Z,1.50
2017-12-14T10:16:58.402Z,1.60
2017-12-14T10:19:27.021Z,1.60
2017-12-14T10:21:55.044Z,1.60
2017-12-14T10:24:22.785Z,1.70
2017-12-14T10:26:50.482Z,1.70
2017-12-14T10:29:18.986Z,1.60
2017-12-14T10:31:47.021Z,1.60
2017-12-14T10:34:14.724Z,1.60
2017-12-14T10:36:42.456Z,1.50
2017-12-14T10:39:10.936Z,1.50
2017-12-14T10:41:38.975Z,1.50
2017-12-14T10:44:06.684Z,1.50
2017-12-14T10:46:35.476Z,1.50
2017-12-14T10:49:03.205Z,1.50
2017-12-14T10:51:31.241Z,1.50
2017-12-14T10:53:58.952Z,1.60
2017-12-14T10:56:26.658Z,1.60
2017-12-14T10:58:54.352Z,1.70
2017-12-14T11:01:27.484Z,1.80
2017-12-14T11:03:55.946Z,2.00
2017-12-14T11:06:24.415Z,2.10
2017-12-14T11:08:52.130Z,2.10
2017-12-14T11:11:19.836Z,2.20
2017-12-14T11:13:47.580Z,2.30
2017-12-14T11:16:15.279Z,2.40
2017-12-14T11:18:43.768Z,2.60
2017-12-14T11:21:12.293Z,2.70
2017-12-14T11:23:40.323Z,2.70
2017-12-14T11:26:08.808Z,2.80
2017-12-14T11:28:36.936Z,2.80
2017-12-14T11:31:04.637Z,3.00
2017-12-14T11:33:33.127Z,3.10
2017-12-14T11:36:00.832Z,3.10
2017-12-14T11:38:28.556Z,3.10
2017-12-14T11:40:56.252Z,3.10
2017-12-14T11:43:24.278Z,3.00
2017-12-14T11:45:51.999Z,3.10
2017-12-14T11:48:19.932Z,3.10
2017-12-14T11:50:47.652Z,3.10
2017-12-14T11:53:16.142Z,3.00
2017-12-14T11:55:44.618Z,2.90
2017-12-14T11:58:13.271Z,2.90
2017-12-14T12:00:41.024Z,2.60
2017-12-14T12:03:09.409Z,2.50
2017-12-14T12:05:37.782Z,2.50
2017-12-14T12:08:05.489Z,2.40
2017-12-14T12:10:33.971Z,2.30
2017-12-14T12:13:02.460Z,2.40
2017-12-14T12:18:00.344Z,2.40
2017-12-14T12:20:29.136Z,2.30
2017-12-14T12:22:56.848Z,2.30
2017-12-14T12:25:24.563Z,2.30
2017-12-14T12:27:52.684Z,2.30
2017-12-14T12:30:20.722Z,2.40
2017-12-14T12:32:48.420Z,2.40
2017-12-14T12:35:16.491Z,2.40
2017-12-14T12:37:44.373Z,2.40
2017-12-14T12:40:12.087Z,2.40
2017-12-14T12:42:40.129Z,2.40
2017-12-14T12:45:08.592Z,2.50
2017-12-14T12:47:36.650Z,2.50
2017-12-14T12:50:04.679Z,2.50
2017-12-14T12:52:32.409Z,2.50
2017-12-14T12:55:01.275Z,2.60
2017-12-14T12:57:29.308Z,2.60
2017-12-14T12:59:57.028Z,2.60
2017-12-14T13:02:25.496Z,2.70
2017-12-14T13:04:54.368Z,2.90
2017-12-14T13:07:22.399Z,2.80
2017-12-14T13:09:50.094Z,2.80
2017-12-14T13:14:47.193Z,2.80
2017-12-14T13:17:15.675Z,2.80
2017-12-14T13:19:44.135Z,2.80
2017-12-14T13:24:40.920Z,2.80
2017-12-14T13:27:09.571Z,2.80
2017-12-14T13:29:37.620Z,2.70
2017-12-14T13:42:02.223Z,3.10
2017-12-14T13:44:30.680Z,3.00
2017-12-14T13:46:58.376Z,2.90
2017-12-14T13:49:26.092Z,3.00
2017-12-14T13:51:54.116Z,2.90
2017-12-14T13:54:21.849Z,2.90
2017-12-14T13:56:49.661Z,2.90
2017-12-14T14:06:45.534Z,3.10
2017-12-14T14:09:13.887Z,3.00
2017-12-14T14:11:41.920Z,3.00
2017-12-14T14:14:10.382Z,3.00
2017-12-14T14:16:38.933Z,3.00
2017-12-14T14:19:07.364Z,3.00
2017-12-14T14:21:35.732Z,3.00
2017-12-14T14:24:03.866Z,3.00
2017-12-14T14:26:32.241Z,3.10
2017-12-14T14:29:00.599Z,3.10
2017-12-14T14:31:28.645Z,3.10
2017-12-14T14:33:56.741Z,3.10
2017-12-14T14:36:24.487Z,3.10
2017-12-14T14:38:54.077Z,2.70
2017-12-14T14:41:22.440Z,2.70
2017-12-14T14:43:50.848Z,2.60
2017-12-14T14:46:19.644Z,2.30
2017-12-14T14:48:48.154Z,2.20
2017-12-14T14:51:16.535Z,2.20
2017-12-14T14:53:44.898Z,2.10
2017-12-14T14:56:13.269Z,1.90
2017-12-14T14:58:41.639Z,1.90
2017-12-14T15:01:10.820Z,1.90
2017-12-14T15:03:40.249Z,1.80
2017-12-14T15:06:08.626Z,1.90
2017-12-14T15:08:36.996Z,1.90
2017-12-14T15:11:06.152Z,2.00
2017-12-14T15:13:35.733Z,2.10
2017-12-14T15:18:34.731Z,2.20
2017-12-14T15:21:03.104Z,2.20
2017-12-14T15:23:31.474Z,2.30
2017-12-14T15:25:59.957Z,2.30
2017-12-14T15:28:28.452Z,2.30
2017-12-14T15:30:59.641Z,2.40
2017-12-14T15:33:28.011Z,2.30
2017-12-14T15:35:56.374Z,2.40
2017-12-14T15:38:24.781Z,2.30
2017-12-14T15:40:53.229Z,2.20
2017-12-14T15:43:21.704Z,2.20
2017-12-14T15:45:50.112Z,2.20
2017-12-14T15:48:18.481Z,2.20
2017-12-14T15:50:46.851Z,2.20
2017-12-14T15:53:15.203Z,2.20
2017-12-14T15:55:43.578Z,2.30
2017-12-14T15:58:11.964Z,2.30
2017-12-14T16:00:40.367Z,2.30
2017-12-14T16:03:08.924Z,2.30
2017-12-14T16:05:37.295Z,2.30
2017-12-14T16:08:05.728Z,2.30
2017-12-14T16:10:34.856Z,2.40
2017-12-14T16:13:03.221Z,2.30
2017-12-14T16:15:32.364Z,2.40
2017-12-14T16:18:00.728Z,2.40
2017-12-14T16:20:29.108Z,2.50
2017-12-14T16:22:57.490Z,2.50
2017-12-14T16:25:25.863Z,2.50
2017-12-14T16:27:54.240Z,2.60
2017-12-14T16:30:22.616Z,2.60
2017-12-14T16:32:51.035Z,2.60
2017-12-14T16:35:19.410Z,2.70
2017-12-14T16:37:48.578Z,2.80
2017-12-14T16:40:16.952Z,2.80
2017-12-14T16:42:45.318Z,2.90
2017-12-14T16:45:13.368Z,2.90
2017-12-14T16:47:42.572Z,3.10
2017-12-14T16:50:10.923Z,3.10
2017-12-14T16:52:39.292Z,3.20
2017-12-14T16:55:07.669Z,3.30
2017-12-14T16:57:36.088Z,3.30
2017-12-14T17:00:03.804Z,3.30
2017-12-14T17:02:32.165Z,3.30
2017-12-14T17:05:00.564Z,3.40
2017-12-14T17:07:28.984Z,3.40
2017-12-14T17:09:57.353Z,3.40
2017-12-14T17:12:26.480Z,3.40
2017-12-14T17:14:54.836Z,3.40
2017-12-14T17:17:23.228Z,3.40
2017-12-14T17:19:51.417Z,3.40
2017-12-14T17:22:19.825Z,3.40
2017-12-14T17:24:48.205Z,3.50
2017-12-14T17:27:16.597Z,3.50
2017-12-14T17:29:45.736Z,3.40
2017-12-14T17:32:14.100Z,3.40
2017-12-14T17:34:42.480Z,3.40
2017-12-14T17:37:10.888Z,3.40
2017-12-14T17:39:39.260Z,3.40
2017-12-14T17:42:07.654Z,3.40
2017-12-14T17:44:36.034Z,3.40
2017-12-14T17:47:04.685Z,3.40
2017-12-14T17:49:33.812Z,3.40
2017-12-14T17:54:31.733Z,3.40
2017-12-14T17:57:00.855Z,3.40
2017-12-14T17:59:29.256Z,3.40
2017-12-14T18:01:57.722Z,3.40
2017-12-14T18:04:26.075Z,3.50
2017-12-14T18:06:55.256Z,3.50
2017-12-14T18:09:24.388Z,3.50
2017-12-14T18:11:52.769Z,3.50
2017-12-14T18:14:21.134Z,3.40
2017-12-14T18:16:49.511Z,3.40
2017-12-14T18:19:17.889Z,3.40
2017-12-14T18:21:46.284Z,3.40
2017-12-14T18:24:14.675Z,3.40
2017-12-14T18:26:43.044Z,3.40
2017-12-14T18:29:11.408Z,3.40
2017-12-14T18:31:39.803Z,3.40
2017-12-14T18:34:08.184Z,3.40
2017-12-14T18:36:36.564Z,3.40
2017-12-14T18:39:04.076Z,3.50
2017-12-14T18:41:33.269Z,3.50
2017-12-14T18:44:02.098Z,3.50
2017-12-14T18:46:30.467Z,3.50
2017-12-14T18:48:58.548Z,3.50
2017-12-14T18:51:26.920Z,3.50
2017-12-14T18:53:54.960Z,3.50
2017-12-14T18:56:23.790Z,3.40
2017-12-14T18:58:51.497Z,3.40
2017-12-14T19:01:19.999Z,3.40
2017-12-14T19:03:49.175Z,3.40
2017-12-14T19:06:16.876Z,3.40
2017-12-14T19:08:45.263Z,3.40
2017-12-14T19:11:13.064Z,3.40
2017-12-14T19:13:40.809Z,3.30
2017-12-14T19:16:08.512Z,3.30
2017-12-14T19:18:37.343Z,3.40
2017-12-14T19:21:05.070Z,3.40
2017-12-14T19:23:34.231Z,3.40
2017-12-14T19:26:02.288Z,3.40
2017-12-14T19:28:30.656Z,3.40
2017-12-14T19:30:58.712Z,3.40
2017-12-14T19:33:27.102Z,3.40
2017-12-14T19:35:55.145Z,3.40
2017-12-14T19:38:24.276Z,3.40
2017-12-14T19:40:52.647Z,3.40
2017-12-14T19:43:21.022Z,3.40
2017-12-14T19:45:48.987Z,3.40
2017-12-14T19:48:17.380Z,3.40
2017-12-14T19:50:45.447Z,3.40
2017-12-14T19:53:13.587Z,3.40
2017-12-14T19:55:41.625Z,3.50
2017-12-14T19:58:09.997Z,3.50
2017-12-14T20:00:37.701Z,3.50
2017-12-14T20:03:06.075Z,3.50
2017-12-14T20:05:35.223Z,3.60
2017-12-14T20:08:03.158Z,3.50
2017-12-14T20:10:31.666Z,3.50
2017-12-14T20:13:00.966Z,3.50
2017-12-14T20:15:29.320Z,3.50
2017-12-14T20:17:57.847Z,3.50
2017-12-14T20:20:26.184Z,3.50
2017-12-14T20:22:54.866Z,3.50
2017-12-14T20:25:23.363Z,3.50
2017-12-14T20:27:51.628Z,3.50
2017-12-14T20:30:20.288Z,3.50
2017-12-14T20:32:48.584Z,3.50
2017-12-14T20:35:17.373Z,3.50
2017-12-14T20:37:46.164Z,3.50
2017-12-14T20:40:16.586Z,3.50
2017-12-14T20:42:45.374Z,3.50
2017-12-14T20:45:14.058Z,3.40
2017-12-14T20:47:43.002Z,3.10
2017-12-14T20:50:11.427Z,2.70
2017-12-14T20:52:40.234Z,2.50
2017-12-14T20:55:08.920Z,2.30
2017-12-14T20:57:37.592Z,2.30
2017-12-14T21:00:06.003Z,2.20
2017-12-14T21:02:35.472Z,2.10
2017-12-14T21:05:04.156Z,2.10
2017-12-14T21:07:34.343Z,1.90
2017-12-14T21:10:02.807Z,1.90
2017-12-14T21:12:32.014Z,1.80
2017-12-14T21:15:01.128Z,1.70
2017-12-14T21:17:29.533Z,1.80
2017-12-14T21:19:58.004Z,1.80
2017-12-14T21:22:26.373Z,1.90
2017-12-14T21:24:54.800Z,2.00
2017-12-14T21:27:23.251Z,2.10
2017-12-14T21:29:51.636Z,2.00
2017-12-14T21:32:20.028Z,1.90
2017-12-14T21:34:48.404Z,1.90
2017-12-14T21:37:16.891Z,1.80
2017-12-14T21:39:45.349Z,1.80
2017-12-14T21:42:13.731Z,1.90
2017-12-14T21:44:43.629Z,2.00
2017-12-14T21:47:12.050Z,2.00
2017-12-14T21:49:40.530Z,2.10
2017-12-14T21:52:08.913Z,2.10
2017-12-14T21:54:38.061Z,2.00
2017-12-14T21:57:05.771Z,2.00
2017-12-14T21:59:33.799Z,2.00
2017-12-14T22:02:02.839Z,2.00
2017-12-14T22:04:30.919Z,2.00
2017-12-14T22:07:00.066Z,2.00
2017-12-14T22:09:28.465Z,2.00
2017-12-14T22:11:56.820Z,1.90
2017-12-14T22:14:25.227Z,1.80
2017-12-14T22:16:53.584Z,1.90
2017-12-14T22:19:21.950Z,1.90
2017-12-14T22:21:50.338Z,1.80
2017-12-14T22:24:18.375Z,1.80
2017-12-14T22:26:46.780Z,1.70
2017-12-14T22:29:15.145Z,1.60
2017-12-14T22:31:43.514Z,1.60
2017-12-14T22:34:11.893Z,1.70
2017-12-14T22:36:40.260Z,1.90
2017-12-14T22:39:09.407Z,1.90
2017-12-14T22:41:37.782Z,1.90
2017-12-14T22:44:06.148Z,2.00
2017-12-14T22:46:34.519Z,2.10
2017-12-14T22:49:02.933Z,2.10
2017-12-14T22:51:31.308Z,2.20
2017-12-14T22:53:59.685Z,2.20
2017-12-14T22:56:28.072Z,2.30
2017-12-14T22:58:56.446Z,2.40
2017-12-14T23:01:24.175Z,2.40
2017-12-14T23:03:52.575Z,2.40
2017-12-14T23:06:20.942Z,2.40
2017-12-14T23:08:49.300Z,2.30
2017-12-14T23:11:17.361Z,2.30
2017-12-14T23:13:45.736Z,2.30
2017-12-14T23:16:13.809Z,2.30
2017-12-14T23:18:41.735Z,2.30
2017-12-14T23:21:10.105Z,2.30
2017-12-14T23:23:38.483Z,2.30
2017-12-14T23:26:06.862Z,2.20
2017-12-14T23:28:35.248Z,2.20
2017-12-14T23:31:03.280Z,2.20
2017-12-14T23:33:31.636Z,2.30
2017-12-14T23:36:00.017Z,2.40
2017-12-14T23:38:28.378Z,2.40
2017-12-14T23:40:56.881Z,2.40
2017-12-14T23:43:25.428Z,2.40
2017-12-14T23:45:54.678Z,2.40
2017-12-14T23:48:23.973Z,2.30
2017-12-14T23:50:52.008Z,2.30
2017-12-14T23:53:21.156Z,2.30
2017-12-14T23:55:49.518Z,2.30
2017-12-14T23:58:17.876Z,2.40
